Time;durP1;ratioP1;P1;durP2;ratioP2;P2;SDS_P1;SDS_P2;PMS_P1;PMS_P2;Temp;Humidity;BMP_temperature;BMP_pressure;BME280_temperature;BME280_humidity;BME280_pressure;Samples;Min_cycle;Max_cycle;Signal;HPM_P1;HPM_P2
2023/05/03 00:00:07;;;;;;;0.80;0.80;;;;;;;10.32;69.68;97570.47;5022739;28;20053;-57
2023/05/03 00:02:37;;;;;;;0.80;0.80;;;;;;;10.18;69.78;97581.19;5024074;28;20357;-58
2023/05/03 00:05:11;;;;;;;0.80;0.80;;;;;;;9.71;69.88;97533.19;5024062;28;20148;-61
2023/05/03 00:07:39;;;;;;;0.77;0.77;;;;;;;9.98;69.91;97584.97;5023844;28;20146;-57
2023/05/03 00:10:07;;;;;;;0.82;0.82;;;;;;;10.08;70.63;97587.25;5024155;28;20536;-58
2023/05/03 00:12:33;;;;;;;0.80;0.80;;;;;;;9.80;70.45;97547.69;5023517;28;20079;-57
2023/05/03 00:15:00;;;;;;;0.80;0.80;;;;;;;9.96;70.65;97581.72;5024108;28;20049;-59
2023/05/03 00:17:27;;;;;;;0.80;0.80;;;;;;;9.91;70.83;97597.78;5022180;28;20057;-58
2023/05/03 00:19:55;;;;;;;0.70;0.70;;;;;;;9.32;72.40;97547.06;5022566;28;20087;-59
2023/05/03 00:22:22;;;;;;;0.70;0.70;;;;;;;9.46;73.57;97598.06;5022332;28;20516;-59
2023/05/03 00:24:50;;;;;;;0.70;0.70;;;;;;;9.46;73.45;97598.06;5022258;28;20533;-59
2023/05/03 00:27:17;;;;;;;0.70;0.70;;;;;;;9.45;73.19;97596.47;5023322;28;20111;-58
2023/05/03 00:29:45;;;;;;;0.80;0.80;;;;;;;9.40;73.49;97599.47;5022467;28;20416;-59
2023/05/03 00:32:11;;;;;;;0.70;0.70;;;;;;;9.49;73.34;97591.81;5023514;28;20057;-58
2023/05/03 00:34:38;;;;;;;0.70;0.70;;;;;;;9.35;74.36;97585.88;5022120;28;20089;-59
2023/05/03 00:37:04;;;;;;;0.70;0.70;;;;;;;8.82;75.22;97534.47;5023576;28;20093;-58
2023/05/03 00:39:31;;;;;;;0.70;0.70;;;;;;;8.04;75.31;97397.06;5023881;28;20056;-60
2023/05/03 00:41:59;;;;;;;0.70;0.70;;;;;;;9.13;75.21;97611.25;5023667;28;20057;-58
2023/05/03 00:44:25;;;;;;;0.70;0.70;;;;;;;9.10;74.90;97600.88;4999826;28;20057;-61
2023/05/03 00:46:54;;;;;;;0.70;0.70;;;;;;;8.95;76.10;97604.34;5004264;28;20501;-58
2023/05/03 00:49:23;;;;;;;0.68;0.68;;;;;;;8.83;76.33;97598.81;5006179;28;20049;-61
2023/05/03 00:51:52;;;;;;;0.70;0.70;;;;;;;8.82;75.70;97569.59;5007322;28;20096;-58
2023/05/03 00:54:20;;;;;;;0.70;0.70;;;;;;;8.96;75.53;97586.63;5006308;28;20935;-58
2023/05/03 00:56:47;;;;;;;0.70;0.70;;;;;;;8.90;76.05;97586.03;5006138;28;20140;-58
2023/05/03 00:59:18;;;;;;;0.70;0.70;;;;;;;8.70;75.89;97573.16;5006303;28;20072;-59
2023/05/03 01:01:51;;;;;;;0.70;0.70;;;;;;;8.80;75.33;97585.72;5007733;28;20061;-58
2023/05/03 01:04:19;;;;;;;0.70;0.70;;;;;;;8.80;76.31;97588.47;4989261;28;20043;-58
2023/05/03 01:07:03;;;;;;;0.70;0.70;;;;;;;8.70;76.67;97581.44;4987975;28;20065;-58
2023/05/03 01:09:35;;;;;;;0.70;0.70;;;;;;;8.33;76.21;97540.38;4987494;28;20050;-58
2023/05/03 01:12:16;;;;;;;0.70;0.70;;;;;;;8.28;76.30;97524.03;4988080;28;20093;-58
2023/05/03 01:14:52;;;;;;;0.70;0.70;;;;;;;8.55;76.73;97590.41;4987857;28;20113;-61
2023/05/03 01:17:26;;;;;;;0.60;0.60;;;;;;;8.64;76.08;97582.84;4987484;28;20057;-60
2023/05/03 01:20:23;;;;;;;0.70;0.70;;;;;;;8.67;76.34;97581.31;5002824;28;20076;-58
2023/05/03 01:22:59;;;;;;;0.60;0.60;;;;;;;8.72;76.58;97584.69;4987083;28;20510;-60
2023/05/03 01:25:26;;;;;;;0.70;0.70;;;;;;;8.72;76.32;97578.34;4987701;28;20533;-58
2023/05/03 01:27:52;;;;;;;0.60;0.60;;;;;;;8.94;75.65;97580.63;4987664;28;20513;-59
2023/05/03 01:30:22;;;;;;;0.70;0.70;;;;;;;8.90;74.87;97576.94;5002627;28;20074;-60
2023/05/03 01:33:04;;;;;;;0.70;0.70;;;;;;;8.30;75.57;97518.97;4987256;28;20061;-60
2023/05/03 01:35:50;;;;;;;0.70;0.70;;;;;;;8.84;75.41;97587.44;4986094;28;20116;-61
2023/05/03 01:38:17;;;;;;;0.70;0.70;;;;;;;8.98;74.40;97587.06;4987362;28;20058;-60
2023/05/03 01:40:49;;;;;;;0.63;0.63;;;;;;;8.99;74.43;97577.66;4985773;28;20509;-58
2023/05/03 01:43:17;;;;;;;0.60;0.60;;;;;;;8.88;75.21;97576.50;4986862;28;20521;-60
2023/05/03 01:45:44;;;;;;;0.70;0.70;;;;;;;8.95;74.26;97549.09;4995109;28;20050;-60
2023/05/03 01:48:16;;;;;;;0.70;0.70;;;;;;;7.93;73.66;97379.34;5005027;28;20054;-60
2023/05/03 01:50:43;;;;;;;0.73;0.73;;;;;;;8.83;73.91;97535.28;5006737;28;20141;-59
2023/05/03 01:53:10;;;;;;;0.70;0.70;;;;;;;9.16;73.73;97571.84;5005382;28;20144;-59
2023/05/03 01:55:37;;;;;;;0.80;0.80;;;;;;;8.78;74.28;97522.53;5004892;28;20138;-60
2023/05/03 01:58:03;;;;;;;0.80;0.80;;;;;;;9.12;74.38;97568.16;5005361;28;20053;-61
2023/05/03 02:00:30;;;;;;;0.68;0.68;;;;;;;9.08;74.42;97570.03;5005258;28;20508;-59
2023/05/03 02:02:57;;;;;;;0.70;0.70;;;;;;;8.93;75.17;97565.22;5006170;28;20050;-61
2023/05/03 02:05:24;;;;;;;0.70;0.70;;;;;;;9.07;74.78;97557.38;5004909;28;20054;-59
2023/05/03 02:07:51;;;;;;;0.70;0.70;;;;;;;9.12;74.04;97560.69;5005942;28;20069;-59
2023/05/03 02:10:18;;;;;;;0.60;0.60;;;;;;;8.98;74.87;97559.44;5004736;28;20064;-61
2023/05/03 02:12:44;;;;;;;0.80;0.80;;;;;;;8.93;74.85;97563.25;5006341;28;20053;-59
2023/05/03 02:15:12;;;;;;;0.60;0.60;;;;;;;8.78;75.26;97535.53;5004738;28;20049;-62
2023/05/03 02:17:39;;;;;;;0.68;0.68;;;;;;;8.91;75.36;97542.66;5006763;28;20137;-58
2023/05/03 02:20:09;;;;;;;0.70;0.70;;;;;;;8.80;75.78;97547.03;5006380;28;20054;-60
2023/05/03 02:22:36;;;;;;;0.70;0.70;;;;;;;8.56;76.07;97524.94;5005992;28;20050;-60
2023/05/03 02:25:03;;;;;;;0.70;0.70;;;;;;;8.57;76.92;97548.63;5006001;28;20065;-60
2023/05/03 02:27:30;;;;;;;0.70;0.70;;;;;;;8.37;76.88;97525.53;5005848;28;20065;-59
2023/05/03 02:29:57;;;;;;;0.63;0.63;;;;;;;8.62;77.20;97534.59;5005321;28;20563;-60
2023/05/03 02:32:24;;;;;;;0.65;0.65;;;;;;;8.24;76.81;97467.91;5004012;28;20119;-59
2023/05/03 02:34:51;;;;;;;0.70;0.70;;;;;;;8.61;76.64;97544.06;5005716;28;20049;-61
2023/05/03 02:37:17;;;;;;;0.60;0.60;;;;;;;8.51;77.20;97544.50;5005657;28;20081;-59
2023/05/03 02:39:44;;;;;;;0.70;0.70;;;;;;;8.57;76.62;97545.88;5002449;28;20057;-60
2023/05/03 02:42:11;;;;;;;0.70;0.70;;;;;;;8.44;77.62;97527.72;5004396;28;20503;-59
2023/05/03 02:44:37;;;;;;;0.60;0.60;;;;;;;8.48;77.16;97550.72;5004329;28;20062;-59
2023/05/03 02:47:04;;;;;;;0.70;0.70;;;;;;;8.57;76.94;97548.63;5004427;28;20073;-60
2023/05/03 02:49:31;;;;;;;0.63;0.63;;;;;;;8.59;77.11;97547.16;5004521;28;20076;-59
2023/05/03 02:51:57;;;;;;;0.60;0.60;;;;;;;8.45;77.38;97551.41;5002614;28;20594;-60
2023/05/03 02:54:24;;;;;;;0.60;0.60;;;;;;;8.44;77.28;97553.34;5004698;28;20053;-59
2023/05/03 02:56:51;;;;;;;0.70;0.70;;;;;;;8.63;76.23;97552.81;5005735;28;20149;-60
2023/05/03 02:59:17;;;;;;;0.57;0.57;;;;;;;8.66;75.90;97563.16;5005066;28;20092;-59
2023/05/03 03:01:45;;;;;;;0.60;0.60;;;;;;;8.11;76.76;97502.13;5005501;28;20050;-60
2023/05/03 03:04:12;;;;;;;0.70;0.70;;;;;;;8.53;76.97;97567.88;5003961;28;20108;-60
2023/05/03 03:06:39;;;;;;;0.60;0.60;;;;;;;8.60;76.86;97565.34;5005385;28;20169;-60
2023/05/03 03:09:05;;;;;;;0.65;0.65;;;;;;;8.62;76.42;97623.78;5003615;28;20049;-59
2023/05/03 03:11:32;;;;;;;0.70;0.70;;;;;;;8.60;76.08;97570.06;5005534;28;20108;-60
2023/05/03 03:13:59;;;;;;;0.68;0.68;;;;;;;8.34;76.70;97517.13;5005322;28;20046;-59
2023/05/03 03:16:26;;;;;;;0.70;0.70;;;;;;;8.73;77.10;97568.91;5003826;28;20083;-59
2023/05/03 03:18:52;;;;;;;0.70;0.70;;;;;;;8.77;76.69;97572.59;5003630;28;20091;-62
2023/05/03 03:21:19;;;;;;;0.63;0.63;;;;;;;8.82;76.44;97566.84;5005203;28;20145;-59
2023/05/03 03:23:46;;;;;;;0.70;0.70;;;;;;;8.86;76.58;97562.22;5004787;28;20509;-61
2023/05/03 03:26:12;;;;;;;0.70;0.70;;;;;;;8.78;76.77;97565.91;5004804;28;20104;-59
2023/05/03 03:28:39;;;;;;;0.68;0.68;;;;;;;8.95;75.92;97579.47;5004956;28;20050;-60
2023/05/03 03:31:06;;;;;;;0.70;0.70;;;;;;;8.96;74.31;97556.25;5004992;28;20060;-59
2023/05/03 03:33:32;;;;;;;0.70;0.70;;;;;;;8.95;75.12;97554.59;4984717;28;20054;-60
2023/05/03 03:35:59;;;;;;;0.70;0.70;;;;;;;8.80;75.10;97524.94;4999732;28;20104;-58
2023/05/03 03:38:26;;;;;;;0.70;0.70;;;;;;;9.27;74.67;97578.50;4985670;28;20559;-59
2023/05/03 03:40:53;;;;;;;0.80;0.80;;;;;;;9.24;74.67;97584.75;4999640;28;20054;-62
2023/05/03 03:43:19;;;;;;;0.70;0.70;;;;;;;9.20;74.83;97584.63;4985786;28;20156;-59
2023/05/03 03:45:47;;;;;;;0.80;0.80;;;;;;;9.08;74.18;97525.81;4988775;28;20104;-59
2023/05/03 03:48:13;;;;;;;0.70;0.70;;;;;;;9.24;72.61;97540.53;5004376;28;20432;-59
2023/05/03 03:50:40;;;;;;;0.77;0.77;;;;;;;9.54;72.37;97575.00;5004357;28;20049;-63
2023/05/03 03:53:09;;;;;;;0.70;0.70;;;;;;;9.68;72.55;97577.34;5004517;28;20072;-58
2023/05/03 03:55:36;;;;;;;0.80;0.80;;;;;;;9.74;71.67;97596.13;5004440;28;20066;-60
2023/05/03 03:58:03;;;;;;;0.80;0.80;;;;;;;9.77;71.58;97578.81;5004060;28;20541;-59
2023/05/03 04:00:30;;;;;;;0.80;0.80;;;;;;;9.25;71.25;97480.53;5004157;28;20108;-59
2023/05/03 04:02:57;;;;;;;0.70;0.70;;;;;;;9.85;70.88;97582.59;5004384;28;20054;-60
2023/05/03 04:05:24;;;;;;;0.80;0.80;;;;;;;9.38;70.61;97513.28;5004160;28;20050;-61
2023/05/03 04:07:50;;;;;;;0.80;0.80;;;;;;;9.67;70.95;97565.50;5004060;28;20089;-59
2023/05/03 04:10:17;;;;;;;0.75;0.75;;;;;;;9.66;70.65;97563.09;5002860;28;20064;-59
2023/05/03 04:12:43;;;;;;;0.70;0.70;;;;;;;9.91;70.98;97606.88;5004476;28;20355;-59
2023/05/03 04:15:12;;;;;;;0.80;0.80;;;;;;;9.91;71.46;97606.88;5004141;28;20054;-59
2023/05/03 04:17:39;;;;;;;0.70;0.70;;;;;;;9.69;71.49;97590.06;5003975;28;20503;-59
2023/05/03 04:20:06;;;;;;;0.80;0.80;;;;;;;9.65;71.31;97572.53;5002394;28;20056;-59
2023/05/03 04:22:33;;;;;;;0.73;0.73;;;;;;;10.04;70.99;97613.97;5006388;28;20136;-60
2023/05/03 04:25:00;;;;;;;0.73;0.73;;;;;;;10.04;71.10;97602.91;5008410;28;20471;-59
2023/05/03 04:27:26;;;;;;;0.80;0.80;;;;;;;10.07;69.60;97587.59;5007861;28;20077;-61
2023/05/03 04:29:53;;;;;;;0.80;0.80;;;;;;;8.37;70.74;97295.63;5008089;28;20085;-62
2023/05/03 04:32:22;;;;;;;0.80;0.80;;;;;;;10.21;68.60;97538.16;5006138;28;20149;-59
2023/05/03 04:34:53;;;;;;;0.90;0.90;;;;;;;10.63;68.48;97603.75;5007971;28;20066;-62
2023/05/03 04:37:21;;;;;;;0.80;0.80;;;;;;;10.72;68.34;97619.41;5008087;28;20162;-59
2023/05/03 04:39:48;;;;;;;0.80;0.80;;;;;;;10.41;68.88;97579.44;5006666;28;20463;-61
2023/05/03 04:42:14;;;;;;;0.85;0.85;;;;;;;9.96;70.12;97479.34;5008032;28;20479;-58
2023/05/03 04:44:41;;;;;;;0.80;0.80;;;;;;;10.82;70.47;97607.78;5007732;28;20108;-59
2023/05/03 04:47:08;;;;;;;0.80;0.80;;;;;;;10.60;69.75;97575.97;5006334;28;20547;-57
2023/05/03 04:49:35;;;;;;;0.88;0.88;;;;;;;11.08;68.39;97613.59;5004879;28;20528;-57
2023/05/03 04:52:02;;;;;;;0.90;0.90;;;;;;;11.05;68.00;97619.84;4994257;28;20152;-58
2023/05/03 04:54:29;;;;;;;1.00;1.00;;;;;;;10.87;67.35;97585.34;5007207;28;20566;-58
2023/05/03 04:56:55;;;;;;;0.80;0.80;;;;;;;11.12;66.68;97620.00;5007640;28;20129;-59
2023/05/03 04:59:22;;;;;;;0.90;0.90;;;;;;;11.19;67.09;97628.50;5007568;28;20103;-59
2023/05/03 05:01:49;;;;;;;0.90;0.90;;;;;;;11.11;66.77;97596.22;5007596;28;20611;-60
2023/05/03 05:04:15;;;;;;;0.90;0.90;;;;;;;11.48;66.26;97627.97;5007724;28;20057;-59
2023/05/03 05:06:42;;;;;;;1.00;1.00;;;;;;;11.56;65.00;97640.84;5007334;28;20452;-60
2023/05/03 05:09:22;;;;;;;0.90;0.90;;;;;;;11.64;66.30;97648.19;5007248;28;20057;-60
2023/05/03 05:11:49;;;;;;;0.90;0.90;;;;;;;11.59;67.43;97663.13;5007259;28;20119;-60
2023/05/03 05:14:16;;;;;;;0.90;0.90;;;;;;;11.68;68.21;97671.31;5007556;28;20070;-60
2023/05/03 05:16:43;;;;;;;1.00;1.00;;;;;;;11.64;68.38;97684.28;5005593;28;20120;-61
2023/05/03 05:19:10;;;;;;;1.00;1.00;;;;;;;11.13;68.13;97594.69;5007140;28;20050;-59
2023/05/03 05:21:38;;;;;;;0.85;0.85;;;;;;;11.49;68.29;97629.59;5006861;28;20049;-58
2023/05/03 05:24:04;;;;;;;0.90;0.90;;;;;;;11.57;66.44;97603.63;5005786;28;20086;-58
2023/05/03 05:26:31;;;;;;;1.00;1.00;;;;;;;11.58;66.20;97608.00;5006994;28;20475;-59
2023/05/03 05:28:58;;;;;;;1.00;1.00;;;;;;;12.04;66.07;97673.69;5006699;28;20054;-59
2023/05/03 05:31:24;;;;;;;0.90;0.90;;;;;;;11.38;68.82;97606.38;5006969;28;20132;-58
2023/05/03 05:33:51;;;;;;;0.90;0.90;;;;;;;11.53;69.53;97652.69;5007075;28;20556;-59
2023/05/03 05:36:18;;;;;;;1.00;1.00;;;;;;;8.97;70.66;97253.94;5000891;28;20085;-60
2023/05/03 05:38:45;;;;;;;1.00;1.00;;;;;;;11.55;73.28;97655.91;5004625;28;20065;-61
2023/05/03 05:41:11;;;;;;;1.00;1.00;;;;;;;11.83;74.04;97696.22;5000398;28;20526;-61
2023/05/03 05:43:38;;;;;;;1.10;1.10;;;;;;;11.73;75.86;97704.31;4995739;28;20069;-62
2023/05/03 05:46:05;;;;;;;1.00;1.00;;;;;;;11.80;74.86;97690.59;5002696;28;20049;-63
2023/05/03 05:48:31;;;;;;;1.10;1.10;;;;;;;11.53;74.24;97669.31;5001461;28;20100;-63
2023/05/03 05:50:59;;;;;;;0.90;0.90;;;;;;;11.42;76.42;97688.50;5003533;28;20060;-64
2023/05/03 05:53:26;;;;;;;0.90;0.90;;;;;;;11.27;75.80;97669.09;4998197;28;20093;-63
2023/05/03 05:55:53;;;;;;;0.90;0.90;;;;;;;11.40;80.19;97704.69;5002112;28;20516;-61
2023/05/03 05:58:19;;;;;;;0.98;0.98;;;;;;;11.16;80.01;97665.28;5003591;28;20108;-66
2023/05/03 06:00:47;;;;;;;0.93;0.93;;;;;;;9.72;80.29;97446.28;5001521;28;20046;-63
2023/05/03 06:03:14;;;;;;;0.90;0.90;;;;;;;10.62;83.54;97602.13;5003834;28;20065;-72
2023/05/03 06:05:41;;;;;;;0.90;0.90;;;;;;;11.24;82.02;97717.75;5002935;28;20202;-67
2023/05/03 06:08:09;;;;;;;0.90;0.90;;;;;;;11.17;80.58;97708.47;5003322;28;20558;-63
2023/05/03 06:10:35;;;;;;;0.80;0.80;;;;;;;10.89;84.02;97716.84;5004648;28;20053;-62
2023/05/03 06:13:02;;;;;;;0.80;0.80;;;;;;;10.10;85.29;97595.22;5001994;28;20567;-65
2023/05/03 06:15:29;;;;;;;1.00;1.00;;;;;;;11.01;87.24;97735.38;5004077;28;20456;-64
2023/05/03 06:17:56;;;;;;;0.80;0.80;;;;;;;10.22;87.99;97620.03;5004612;28;20049;-64
2023/05/03 06:20:23;;;;;;;0.80;0.80;;;;;;;10.52;86.42;97597.16;5000767;28;20046;-63
2023/05/03 06:22:50;;;;;;;0.90;0.90;;;;;;;11.31;86.99;97706.03;5003486;28;20046;-67
2023/05/03 06:25:17;;;;;;;0.98;0.98;;;;;;;11.16;87.26;97643.88;5003007;28;20520;-65
2023/05/03 06:27:43;;;;;;;0.93;0.93;;;;;;;11.58;87.13;97694.03;5002047;28;20045;-63
2023/05/03 06:30:11;;;;;;;0.90;0.90;;;;;;;11.74;86.80;97681.75;5004022;28;20057;-61
2023/05/03 06:32:39;;;;;;;1.00;1.00;;;;;;;11.76;85.56;97673.06;5005429;28;20492;-62
2023/05/03 06:35:08;;;;;;;1.00;1.00;;;;;;;11.70;84.38;97669.75;5003172;28;20068;-64
2023/05/03 06:37:35;;;;;;;0.90;0.90;;;;;;;9.70;85.53;97334.41;4994848;28;20050;-65
2023/05/03 06:40:02;;;;;;;1.00;1.00;;;;;;;11.66;88.10;97643.09;5003401;28;20045;-63
2023/05/03 06:42:29;;;;;;;1.00;1.00;;;;;;;11.40;88.75;97604.00;5002764;28;20049;-63
2023/05/03 06:44:56;;;;;;;0.90;0.90;;;;;;;11.82;91.35;97652.19;5004056;28;20513;-61
2023/05/03 06:47:22;;;;;;;0.95;0.95;;;;;;;12.12;92.02;97681.00;5005101;28;20053;-62
2023/05/03 06:49:49;;;;;;;1.00;1.00;;;;;;;12.21;91.43;97684.34;5005189;28;20057;-61
2023/05/03 06:52:16;;;;;;;1.08;1.08;;;;;;;12.05;91.61;97584.47;5005119;28;20057;-63
2023/05/03 06:54:42;;;;;;;1.05;1.05;;;;;;;12.39;93.18;97591.06;5003482;28;20054;-63
2023/05/03 06:57:09;;;;;;;1.00;1.00;;;;;;;12.43;92.32;97605.81;5003822;28;20153;-61
2023/05/03 06:59:36;;;;;;;1.00;1.00;;;;;;;12.72;91.21;97610.72;5005046;28;20054;-62
2023/05/03 07:02:02;;;;;;;1.08;1.08;;;;;;;12.97;85.58;97625.06;5005298;28;20054;-63
2023/05/03 07:04:29;;;;;;;1.10;1.10;;;;;;;12.86;83.71;97622.09;5005267;28;20089;-61
2023/05/03 07:06:56;;;;;;;1.13;1.13;;;;;;;13.28;80.74;97550.47;5003694;28;20602;-60
2023/05/03 07:09:22;;;;;;;1.10;1.10;;;;;;;13.25;79.50;97506.72;5004690;28;20059;-60
2023/05/03 07:12:08;;;;;;;1.15;1.15;;;;;;;13.91;80.72;97594.28;5003322;28;20539;-62
2023/05/03 07:14:34;;;;;;;1.10;1.10;;;;;;;13.73;77.60;97568.19;5004554;28;20406;-61
2023/05/03 07:17:01;;;;;;;1.30;1.30;;;;;;;14.24;75.53;97580.38;5004610;28;20050;-65
2023/05/03 07:19:28;;;;;;;1.13;1.13;;;;;;;14.38;73.24;97581.38;5004363;28;20532;-61
2023/05/03 07:21:55;;;;;;;1.40;1.40;;;;;;;14.29;71.83;97572.47;5005192;28;20056;-60
2023/05/03 07:24:24;;;;;;;1.30;1.30;;;;;;;14.37;71.29;97512.84;5004460;28;20499;-62
2023/05/03 07:26:52;;;;;;;1.17;1.17;;;;;;;14.87;74.03;97565.09;5004804;28;20054;-61
2023/05/03 07:29:19;;;;;;;1.30;1.30;;;;;;;14.82;70.34;97504.09;5004169;28;20054;-61
2023/05/03 07:31:46;;;;;;;1.60;1.60;;;;;;;15.71;67.81;97569.72;5004627;28;20204;-60
2023/05/03 07:34:13;;;;;;;1.42;1.42;;;;;;;15.88;64.82;97546.63;5002622;28;20057;-60
2023/05/03 07:36:40;;;;;;;1.40;1.40;;;;;;;15.59;64.97;97500.22;5000757;28;20046;-64
2023/05/03 07:39:07;;;;;;;1.70;1.70;;;;;;;16.44;65.23;97564.44;5003112;28;20085;-61
2023/05/03 07:41:34;;;;;;;1.45;1.45;;;;;;;17.12;62.69;97565.31;4999293;28;20665;-63
2023/05/03 07:44:01;;;;;;;1.80;1.80;;;;;;;16.92;61.78;97566.88;4998191;28;20129;-60
2023/05/03 07:46:30;;;;;;;1.60;1.60;;;;;;;17.17;61.25;97556.50;4987278;28;20064;-62
2023/05/03 07:48:57;;;;;;;1.80;1.80;;;;;;;15.14;62.10;97267.13;4998276;28;20065;-64
2023/05/03 07:51:24;;;;;;;1.90;1.90;;;;;;;16.95;62.39;97574.50;5001849;28;20049;-63
2023/05/03 07:53:50;;;;;;;1.60;1.60;;;;;;;16.93;58.80;97602.09;4998938;28;20066;-62
2023/05/03 07:56:17;;;;;;;1.70;1.70;;;;;;;16.64;58.30;97545.31;4993384;28;20108;-71
2023/05/03 07:58:43;;;;;;;1.70;1.70;;;;;;;17.01;56.02;97592.50;5004502;28;20077;-60
2023/05/03 08:01:14;;;;;;;1.70;1.70;;;;;;;16.90;54.63;97586.88;4995938;28;20077;-61
2023/05/03 08:03:42;;;;;;;1.95;1.95;;;;;;;16.85;53.92;97550.13;5008098;28;20081;-63
2023/05/03 08:06:09;;;;;;;1.80;1.80;;;;;;;16.83;55.25;97553.31;4999109;28;20053;-64
2023/05/03 08:08:37;;;;;;;1.60;1.60;;;;;;;16.44;58.76;97524.44;4995661;28;20116;-59
2023/05/03 08:11:03;;;;;;;1.80;1.80;;;;;;;16.33;57.23;97495.66;5005659;28;20046;-66
2023/05/03 08:13:30;;;;;;;1.77;1.77;;;;;;;15.28;55.67;97323.00;5003072;28;20084;-67
2023/05/03 08:15:56;;;;;;;1.58;1.58;;;;;;;16.12;55.33;97468.47;5003673;28;20116;-57
2023/05/03 08:18:23;;;;;;;1.63;1.63;;;;;;;17.24;55.49;97584.50;5000747;28;20578;-62
2023/05/03 08:20:50;;;;;;;1.75;1.75;;;;;;;17.51;57.24;97577.31;4993304;28;20107;-61
2023/05/03 08:23:17;;;;;;;1.67;1.67;;;;;;;17.39;55.28;97513.25;5001280;28;20435;-59
2023/05/03 08:25:46;;;;;;;1.67;1.67;;;;;;;17.27;54.36;97576.09;5001701;28;20073;-62
2023/05/03 08:28:13;;;;;;;1.65;1.65;;;;;;;17.30;51.05;97571.69;5000783;28;20081;-61
2023/05/03 08:30:40;;;;;;;1.65;1.65;;;;;;;17.48;54.06;97555.72;5003909;28;20153;-58
2023/05/03 08:33:10;;;;;;;1.70;1.70;;;;;;;17.36;52.08;97558.88;4999233;28;20456;-62
2023/05/03 08:35:36;;;;;;;1.60;1.60;;;;;;;17.16;52.83;97555.72;5003138;28;20041;-58
2023/05/03 08:38:04;;;;;;;1.90;1.90;;;;;;;16.57;54.72;97523.72;5002056;28;20073;-62
2023/05/03 08:40:35;;;;;;;1.70;1.70;;;;;;;17.16;52.94;97504.50;5001799;28;20088;-61
2023/05/03 08:43:10;;;;;;;1.77;1.77;;;;;;;16.50;51.34;97504.09;5000587;28;20046;-65
2023/05/03 08:45:36;;;;;;;1.63;1.63;;;;;;;15.89;53.99;97532.28;4996287;28;20096;-64
2023/05/03 08:48:05;;;;;;;1.60;1.60;;;;;;;16.54;54.34;97530.09;5001945;28;20607;-65
2023/05/03 08:50:36;;;;;;;1.55;1.55;;;;;;;16.54;54.25;97465.78;5001073;28;20237;-60
2023/05/03 08:53:03;;;;;;;1.67;1.67;;;;;;;17.23;51.82;97526.91;5001857;28;20505;-66
2023/05/03 08:55:30;;;;;;;1.80;1.80;;;;;;;16.41;55.76;97526.03;4999740;28;20054;-61
2023/05/03 08:57:59;;;;;;;1.60;1.60;;;;;;;16.17;55.73;97526.00;5002429;28;20085;-60
2023/05/03 09:00:29;;;;;;;1.58;1.58;;;;;;;16.05;56.54;97535.53;5002351;28;20060;-70
2023/05/03 09:02:55;;;;;;;1.48;1.48;;;;;;;16.20;55.10;97503.63;5000239;28;20074;-58
2023/05/03 09:05:22;;;;;;;1.58;1.58;;;;;;;16.21;56.20;97513.63;5000189;28;20065;-72
2023/05/03 09:08:15;;;;;;;1.60;1.60;;;;;;;13.77;55.43;97198.72;5004727;28;20111;-61
2023/05/03 09:10:42;;;;;;;1.67;1.67;;;;;;;16.41;54.30;97520.44;4992336;28;20077;-59
2023/05/03 09:13:10;;;;;;;1.60;1.60;;;;;;;16.06;54.23;97486.81;5000585;28;20073;-60
2023/05/03 09:15:37;;;;;;;1.60;1.60;;;;;;;16.49;54.53;97510.91;4994643;28;20394;-70
2023/05/03 09:18:07;;;;;;;1.67;1.67;;;;;;;16.51;53.49;97511.31;5004914;28;20496;-69
2023/05/03 09:20:35;;;;;;;1.67;1.67;;;;;;;16.51;53.47;97510.50;5004058;28;20531;-68
2023/05/03 09:23:02;;;;;;;1.20;1.20;;;;;;;15.93;55.88;97505.13;5003028;28;20452;-62
2023/05/03 09:25:47;;;;;;;1.42;1.42;;;;;;;15.91;54.38;97451.66;4989327;28;20046;-62
2023/05/03 09:28:14;;;;;;;1.50;1.50;;;;;;;16.43;53.81;97506.06;4984132;28;20342;-62
2023/05/03 09:30:42;;;;;;;1.67;1.67;;;;;;;16.79;54.21;97504.94;5000082;28;20082;-62
2023/05/03 09:33:10;;;;;;;1.63;1.63;;;;;;;15.96;54.42;97409.38;4991217;28;20522;-63
2023/05/03 09:35:37;;;;;;;1.63;1.63;;;;;;;16.80;51.41;97407.81;5003021;28;20338;-60
2023/05/03 09:38:04;;;;;;;1.90;1.90;;;;;;;16.90;51.59;97500.13;5001784;28;20050;-62
2023/05/03 09:40:31;;;;;;;1.40;1.40;;;;;;;15.82;51.92;97381.38;5003469;28;20210;-62
2023/05/03 09:43:10;;;;;;;1.70;1.70;;;;;;;16.88;51.83;97504.53;5006567;28;20057;-63
2023/05/03 09:45:38;;;;;;;1.75;1.75;;;;;;;16.64;50.30;97388.66;5005186;28;20137;-63
2023/05/03 09:48:06;;;;;;;1.70;1.70;;;;;;;17.75;51.70;97510.00;5006039;28;20058;-62
2023/05/03 09:50:34;;;;;;;1.80;1.80;;;;;;;17.96;49.21;97500.69;5004191;28;20056;-62
2023/05/03 09:53:02;;;;;;;1.90;1.90;;;;;;;18.16;49.16;97504.63;5004914;28;20053;-60
2023/05/03 09:55:36;;;;;;;2.15;2.15;;;;;;;18.43;49.20;97499.28;5006312;28;20603;-59
2023/05/03 09:58:07;;;;;;;1.77;1.77;;;;;;;18.08;49.01;97494.66;5005272;28;20049;-73
2023/05/03 10:00:39;;;;;;;2.00;2.00;;;;;;;18.59;48.91;97491.94;5001505;28;20642;-72
2023/05/03 10:03:11;;;;;;;2.00;2.00;;;;;;;18.94;48.20;97463.56;5003555;28;20057;-65
2023/05/03 10:05:50;;;;;;;1.90;1.90;;;;;;;19.47;46.97;97491.19;5005184;28;20627;-60
2023/05/03 10:08:26;;;;;;;1.80;1.80;;;;;;;19.31;47.63;97477.72;5005177;28;20487;-61
2023/05/03 10:10:53;;;;;;;2.10;2.10;;;;;;;18.91;45.76;97385.81;5004490;28;20069;-63
2023/05/03 10:13:21;;;;;;;2.03;2.03;;;;;;;19.07;46.26;97439.41;5004800;28;20136;-64
2023/05/03 10:15:57;;;;;;;2.15;2.15;;;;;;;18.22;47.14;97449.69;5005928;28;20080;-64
2023/05/03 10:18:27;;;;;;;1.92;1.92;;;;;;;18.65;47.20;97473.44;5005025;28;20050;-65
2023/05/03 10:21:01;;;;;;;2.10;2.10;;;;;;;19.17;45.86;97410.38;5006324;28;20057;-64
2023/05/03 10:23:27;;;;;;;2.10;2.10;;;;;;;20.08;43.02;97526.59;5004008;28;20720;-64
2023/05/03 10:26:06;;;;;;;2.20;2.20;;;;;;;19.75;45.38;97476.00;5006033;28;20046;-63
2023/05/03 10:28:33;;;;;;;2.30;2.30;;;;;;;19.54;45.84;97465.78;5004260;28;20128;-62
2023/05/03 10:31:00;;;;;;;1.80;1.80;;;;;;;19.51;44.81;97452.59;5005150;28;20590;-62
2023/05/03 10:33:33;;;;;;;2.20;2.20;;;;;;;18.84;46.55;97475.69;5018818;28;20801;-63
2023/05/03 10:36:05;;;;;;;2.20;2.20;;;;;;;19.50;44.68;97463.06;5002836;28;20053;-63
2023/05/03 10:38:32;;;;;;;2.10;2.10;;;;;;;19.11;45.34;97428.91;5003531;28;20141;-61
2023/05/03 10:41:02;;;;;;;1.80;1.80;;;;;;;19.30;43.60;97341.25;4998743;28;20354;-64
2023/05/03 10:43:31;;;;;;;2.30;2.30;;;;;;;21.10;43.40;97474.47;4984721;28;20513;-63
2023/05/03 10:46:05;;;;;;;2.50;2.40;;;;;;;21.71;41.52;97413.69;4995490;28;20187;-63
2023/05/03 10:48:33;;;;;;;2.28;2.28;;;;;;;20.72;42.05;97430.81;5003409;28;20080;-60
2023/05/03 10:51:31;;;;;;;2.30;2.28;;;;;;;21.77;42.53;97468.38;5002195;28;20464;-62
2023/05/03 10:53:58;;;;;;;2.35;2.30;;;;;;;21.83;42.06;97477.91;5004381;28;20822;-66
2023/05/03 10:56:25;;;;;;;2.30;2.30;;;;;;;22.13;41.26;97421.25;5004272;28;20129;-61
2023/05/03 10:58:55;;;;;;;2.50;2.40;;;;;;;21.00;41.04;97351.50;5002458;28;20103;-68
2023/05/03 11:01:23;;;;;;;2.60;2.50;;;;;;;21.26;41.47;97437.91;5000339;28;20050;-70
2023/05/03 11:04:06;;;;;;;2.05;2.05;;;;;;;19.92;43.89;97478.59;4985772;28;20048;-63
2023/05/03 11:06:36;;;;;;;1.90;1.90;;;;;;;19.34;44.46;97439.53;5017606;28;20050;-69
2023/05/03 11:09:07;;;;;;;2.50;2.40;;;;;;;20.41;43.65;97395.53;5004021;28;20433;-63
2023/05/03 11:11:36;;;;;;;2.30;2.30;;;;;;;21.04;42.63;97470.53;5004221;28;20058;-60
2023/05/03 11:14:04;;;;;;;2.42;2.35;;;;;;;20.07;44.31;97473.59;5002561;28;20054;-62
2023/05/03 11:16:31;;;;;;;2.30;2.30;;;;;;;20.43;48.70;97457.81;5005208;28;20571;-62
2023/05/03 11:18:58;;;;;;;2.17;2.17;;;;;;;20.93;44.79;97456.59;5002446;28;20050;-67
2023/05/03 11:21:25;;;;;;;2.10;2.10;;;;;;;20.01;44.76;97402.16;4994389;28;20077;-61
2023/05/03 11:23:52;;;;;;;2.10;2.10;;;;;;;20.22;45.46;97441.25;4999052;28;20115;-61
2023/05/03 11:26:22;;;;;;;2.30;2.30;;;;;;;19.62;46.09;97413.13;5001085;28;20579;-58
2023/05/03 11:28:49;;;;;;;2.50;2.40;;;;;;;20.40;45.17;97442.59;5003427;28;20051;-59
2023/05/03 11:31:15;;;;;;;2.25;2.25;;;;;;;20.49;44.30;97416.72;5001613;28;20158;-66
2023/05/03 11:33:42;;;;;;;2.70;2.60;;;;;;;21.13;44.31;97434.16;5011576;28;20045;-74
2023/05/03 11:36:12;;;;;;;2.55;2.45;;;;;;;21.81;42.04;97428.81;5024450;28;20053;-65
2023/05/03 11:38:39;;;;;;;2.47;2.40;;;;;;;21.31;40.48;97436.66;5007074;28;20513;-61
2023/05/03 11:41:15;;;;;;;2.13;2.13;;;;;;;21.23;38.94;97354.25;5003696;28;20058;-63